createdAt,value
2022-12-20T00:00:28.397Z,24.35
2022-12-20T00:01:34.951Z,22.33
2022-12-20T00:02:37.578Z,19.38
2022-12-20T00:03:42.864Z,19.73
2022-12-20T00:04:44.897Z,19.67
2022-12-20T00:05:49.916Z,17.88
2022-12-20T00:06:52.020Z,18.48
2022-12-20T00:07:56.529Z,18.10
2022-12-20T00:09:00.821Z,19.13
2022-12-20T00:10:05.462Z,19.65
2022-12-20T00:11:08.755Z,18.55
2022-12-20T00:12:13.372Z,19.83
2022-12-20T00:13:15.472Z,20.40
2022-12-20T00:14:20.470Z,22.95
2022-12-20T00:15:22.407Z,21.90
2022-12-20T00:16:31.122Z,23.38
2022-12-20T00:17:33.116Z,19.83
2022-12-20T00:18:38.373Z,18.58
2022-12-20T00:19:40.279Z,18.52
2022-12-20T00:20:44.816Z,17.00
2022-12-20T00:21:46.976Z,16.80
2022-12-20T00:22:51.877Z,16.88
2022-12-20T00:23:54.669Z,16.95
2022-12-20T00:24:59.226Z,18.73
2022-12-20T00:26:02.755Z,17.80
2022-12-20T00:27:07.329Z,18.85
2022-12-20T00:28:09.258Z,22.52
2022-12-20T00:29:13.923Z,20.38
2022-12-20T00:30:17.338Z,19.63
2022-12-20T00:31:23.339Z,20.98
2022-12-20T00:32:30.589Z,21.98
2022-12-20T00:33:33.318Z,19.08
2022-12-20T00:34:37.858Z,19.50
2022-12-20T00:35:42.580Z,19.23
2022-12-20T00:36:47.159Z,19.83
2022-12-20T00:37:49.116Z,18.48
2022-12-20T00:38:55.798Z,18.48
2022-12-20T00:39:57.742Z,18.50
2022-12-20T00:41:03.781Z,14.77
2022-12-20T00:42:08.422Z,19.42
2022-12-20T00:43:10.389Z,19.27
2022-12-20T00:44:15.119Z,17.63
2022-12-20T00:45:17.201Z,23.40
2022-12-20T00:46:23.528Z,22.92
2022-12-20T00:47:28.221Z,20.70
2022-12-20T00:48:33.540Z,21.45
2022-12-20T00:49:35.568Z,18.08
2022-12-20T00:50:40.119Z,18.90
2022-12-20T00:51:42.062Z,18.70
2022-12-20T00:52:46.618Z,19.83
2022-12-20T00:53:48.588Z,21.15
2022-12-20T00:54:53.156Z,19.65
2022-12-20T00:55:55.461Z,18.85
2022-12-20T00:56:59.981Z,19.73
2022-12-20T00:58:01.971Z,21.58
2022-12-20T00:59:06.535Z,18.30
2022-12-20T01:00:10.174Z,19.80
2022-12-20T01:01:21.046Z,26.02
2022-12-20T01:02:23.240Z,25.20
2022-12-20T01:03:30.911Z,23.85
2022-12-20T01:04:33.021Z,22.83
2022-12-20T01:05:37.630Z,19.30
2022-12-20T01:06:39.990Z,21.23
2022-12-20T01:07:44.512Z,26.42
2022-12-20T01:08:46.464Z,19.20
2022-12-20T01:09:51.009Z,19.88
2022-12-20T01:10:59.583Z,25.85
2022-12-20T01:12:04.132Z,19.30
2022-12-20T01:13:06.059Z,19.55
2022-12-20T01:14:13.652Z,23.90
2022-12-20T01:15:15.754Z,22.27
2022-12-20T01:16:23.238Z,22.85
2022-12-20T01:17:25.205Z,21.65
2022-12-20T01:18:32.371Z,22.80
2022-12-20T01:19:34.415Z,23.85
2022-12-20T01:20:38.965Z,20.27
2022-12-20T01:21:44.805Z,19.25
2022-12-20T01:22:49.556Z,23.70
2022-12-20T01:23:51.700Z,19.23
2022-12-20T01:24:56.208Z,19.25
2022-12-20T01:25:59.341Z,22.17
2022-12-20T01:27:03.871Z,20.25
2022-12-20T01:28:05.816Z,19.30
2022-12-20T01:29:10.383Z,22.38
2022-12-20T01:30:13.228Z,20.80
2022-12-20T01:31:20.384Z,20.83
2022-12-20T01:32:22.382Z,22.25
2022-12-20T01:33:26.962Z,23.38
2022-12-20T01:34:31.506Z,23.40
2022-12-20T01:35:36.043Z,18.00
2022-12-20T01:36:38.750Z,19.58
2022-12-20T01:37:43.275Z,18.10
2022-12-20T01:38:45.725Z,20.13
2022-12-20T01:39:50.232Z,21.58
2022-12-20T01:40:52.920Z,22.40
2022-12-20T01:41:57.431Z,19.95
2022-12-20T01:42:59.401Z,22.70
2022-12-20T01:44:06.439Z,17.83
2022-12-20T01:45:13.495Z,17.13
2022-12-20T01:46:19.190Z,20.30
2022-12-20T01:47:22.880Z,18.23
2022-12-20T01:48:29.155Z,19.90
2022-12-20T01:49:38.857Z,26.77
2022-12-20T01:50:44.212Z,14.55
2022-12-20T01:51:50.738Z,19.08
2022-12-20T01:52:55.799Z,17.90
2022-12-20T01:54:04.280Z,16.50
2022-12-20T01:55:13.835Z,19.90
2022-12-20T01:56:15.864Z,19.48
2022-12-20T01:57:25.536Z,21.90
2022-12-20T01:58:27.657Z,20.33
2022-12-20T01:59:34.410Z,23.13
2022-12-20T02:00:37.333Z,17.88
2022-12-20T02:01:41.962Z,18.70
2022-12-20T02:02:45.930Z,17.38
2022-12-20T02:03:52.355Z,17.23
2022-12-20T02:04:56.943Z,18.00
2022-12-20T02:06:17.199Z,16.08
2022-12-20T02:07:24.252Z,18.00
2022-12-20T02:08:28.831Z,21.52
2022-12-20T02:09:32.665Z,16.38
2022-12-20T02:10:50.260Z,21.77
2022-12-20T02:12:08.788Z,16.50
2022-12-20T02:13:20.051Z,24.05
2022-12-20T02:14:36.511Z,20.30
2022-12-20T02:15:53.258Z,16.30
2022-12-20T02:17:04.004Z,17.50
2022-12-20T02:18:23.119Z,15.07
2022-12-20T02:20:04.041Z,19.75
2022-12-20T02:21:24.717Z,14.88
2022-12-20T02:22:34.238Z,17.58
2022-12-20T02:24:06.457Z,16.40
2022-12-20T02:25:25.586Z,15.90
2022-12-20T02:27:00.317Z,19.40
2022-12-20T02:28:15.648Z,16.33
2022-12-20T02:29:25.938Z,24.48
2022-12-20T02:30:37.917Z,19.35
2022-12-20T02:31:43.265Z,16.65
2022-12-20T02:32:54.997Z,16.80
2022-12-20T02:35:02.711Z,15.98
2022-12-20T02:36:07.849Z,17.33
2022-12-20T02:37:10.133Z,23.48
2022-12-20T02:38:31.355Z,18.30
2022-12-20T02:39:35.730Z,21.30
2022-12-20T02:40:44.339Z,18.35
2022-12-20T02:41:51.719Z,28.55
2022-12-20T02:43:01.775Z,32.72
2022-12-20T02:44:22.739Z,22.85
2022-12-20T02:45:28.020Z,25.95
2022-12-20T02:46:34.813Z,26.13
2022-12-20T02:47:43.304Z,22.08
2022-12-20T02:48:47.777Z,24.70
2022-12-20T02:49:54.292Z,24.20
2022-12-20T02:50:59.287Z,20.25
2022-12-20T02:52:05.669Z,17.40
2022-12-20T02:53:08.492Z,21.55
2022-12-20T02:54:13.198Z,18.38
2022-12-20T02:55:15.393Z,15.93
2022-12-20T02:56:26.884Z,18.23
2022-12-20T02:57:38.334Z,18.83
2022-12-20T02:58:49.777Z,18.77
2022-12-20T03:00:01.481Z,19.42
2022-12-20T03:02:14.663Z,16.42
2022-12-20T03:03:23.165Z,20.60
2022-12-20T03:04:30.788Z,19.73
2022-12-20T03:05:35.607Z,19.38
2022-12-20T03:06:40.163Z,18.17
2022-12-20T03:07:42.116Z,19.42
2022-12-20T03:08:47.300Z,18.05
2022-12-20T03:09:49.273Z,17.63
2022-12-20T03:10:55.518Z,21.55
2022-12-20T03:11:57.555Z,18.65
2022-12-20T03:13:02.115Z,17.38
2022-12-20T03:14:04.080Z,20.08
2022-12-20T03:15:09.828Z,17.20
2022-12-20T03:16:11.857Z,18.10
2022-12-20T03:17:19.050Z,21.35
2022-12-20T03:18:21.484Z,19.00
2022-12-20T03:19:26.072Z,21.60
2022-12-20T03:20:28.119Z,19.52
2022-12-20T03:21:32.720Z,21.73
2022-12-20T03:22:35.090Z,22.27
2022-12-20T03:23:39.724Z,14.52
2022-12-20T03:24:41.678Z,18.95
2022-12-20T03:25:46.255Z,26.80
2022-12-20T03:26:48.270Z,20.02
2022-12-20T03:27:52.845Z,19.88
2022-12-20T03:28:54.863Z,21.02
2022-12-20T03:29:59.449Z,18.83
2022-12-20T03:31:01.506Z,19.75
2022-12-20T03:32:06.201Z,20.70
2022-12-20T03:33:10.780Z,20.48
2022-12-20T03:34:15.499Z,20.33
2022-12-20T03:35:17.662Z,20.83
2022-12-20T03:36:24.209Z,21.05
2022-12-20T03:37:26.877Z,23.63
2022-12-20T03:38:31.501Z,24.05
2022-12-20T03:39:33.446Z,27.98
2022-12-20T03:40:38.157Z,24.23
2022-12-20T03:41:42.704Z,22.83
2022-12-20T03:42:45.342Z,23.08
2022-12-20T03:43:49.980Z,21.15
2022-12-20T03:44:52.116Z,22.02
2022-12-20T03:45:56.783Z,21.70
2022-12-20T03:46:58.753Z,22.48
2022-12-20T03:48:03.276Z,24.20
2022-12-20T03:49:07.831Z,21.10
2022-12-20T03:50:13.873Z,13.65
2022-12-20T03:51:15.884Z,17.38
2022-12-20T03:52:20.542Z,16.27
2022-12-20T03:53:22.476Z,20.13
2022-12-20T03:54:27.164Z,20.85
2022-12-20T03:55:29.182Z,20.77
2022-12-20T03:56:33.765Z,23.80
2022-12-20T03:57:36.054Z,20.38
2022-12-20T03:58:40.606Z,18.40
2022-12-20T03:59:43.464Z,18.80
2022-12-20T04:00:48.068Z,19.48
2022-12-20T04:01:50.173Z,18.92
2022-12-20T04:02:55.447Z,16.30
2022-12-20T04:03:57.632Z,15.50
2022-12-20T04:05:04.888Z,18.65
2022-12-20T04:06:07.298Z,14.23
2022-12-20T04:07:12.438Z,16.70
2022-12-20T04:08:14.407Z,14.00
2022-12-20T04:09:19.355Z,13.48
2022-12-20T04:10:21.349Z,14.48
2022-12-20T04:11:26.113Z,18.73
2022-12-20T04:12:28.098Z,17.80
2022-12-20T04:13:32.665Z,15.65
2022-12-20T04:14:37.566Z,24.35
2022-12-20T04:15:39.570Z,14.95
2022-12-20T04:16:44.150Z,13.98
2022-12-20T04:17:46.127Z,16.27
2022-12-20T04:18:50.970Z,14.15
2022-12-20T04:19:55.543Z,17.10
2022-12-20T04:21:00.572Z,16.33
2022-12-20T04:22:06.360Z,17.08
2022-12-20T04:23:08.487Z,17.65
2022-12-20T04:24:13.302Z,20.65
2022-12-20T04:25:17.743Z,18.67
2022-12-20T04:26:22.808Z,16.42
2022-12-20T04:27:24.747Z,20.10
2022-12-20T04:28:29.290Z,17.63
2022-12-20T04:29:31.396Z,19.27
2022-12-20T04:30:35.932Z,19.23
2022-12-20T04:31:38.017Z,15.40
2022-12-20T04:32:42.631Z,16.27
2022-12-20T04:33:45.303Z,17.65
2022-12-20T04:34:49.895Z,17.55
2022-12-20T04:35:52.049Z,19.15
2022-12-20T04:36:59.289Z,19.35
2022-12-20T04:38:03.861Z,16.48
2022-12-20T04:39:05.802Z,19.85
2022-12-20T04:40:12.308Z,15.65
2022-12-20T04:41:22.616Z,20.33
2022-12-20T04:42:27.559Z,20.00
2022-12-20T04:43:29.546Z,21.42
2022-12-20T04:44:34.077Z,19.98
2022-12-20T04:45:36.167Z,19.48
2022-12-20T04:46:41.002Z,16.15
2022-12-20T04:47:43.012Z,21.85
2022-12-20T04:48:57.000Z,17.65
2022-12-20T04:50:00.252Z,18.13
2022-12-20T04:51:04.761Z,19.35
2022-12-20T04:52:24.393Z,17.92
2022-12-20T04:53:41.431Z,23.48
2022-12-20T04:54:46.635Z,17.88
2022-12-20T04:55:48.692Z,16.27
2022-12-20T04:56:53.367Z,13.90
2022-12-20T04:57:55.356Z,14.32
2022-12-20T04:59:02.572Z,15.20
2022-12-20T05:00:05.307Z,15.82
2022-12-20T05:01:09.906Z,15.38
2022-12-20T05:02:12.018Z,15.40
2022-12-20T05:03:16.767Z,15.40
2022-12-20T05:04:18.823Z,16.58
2022-12-20T05:05:23.391Z,22.40
2022-12-20T05:06:28.045Z,19.05
2022-12-20T05:07:32.597Z,21.35
2022-12-20T05:08:37.646Z,19.98
2022-12-20T05:10:27.234Z,16.17
2022-12-20T05:11:31.799Z,14.85
2022-12-20T05:12:34.190Z,16.38
2022-12-20T05:13:39.144Z,15.48
2022-12-20T05:14:41.145Z,12.85
2022-12-20T05:15:45.941Z,11.80
2022-12-20T05:16:50.535Z,16.52
2022-12-20T05:17:52.478Z,13.25
2022-12-20T05:18:57.052Z,12.55
2022-12-20T05:19:59.072Z,16.02
2022-12-20T05:21:17.350Z,12.07
2022-12-20T05:22:34.395Z,13.90
2022-12-20T05:23:53.963Z,16.45
2022-12-20T05:25:11.181Z,16.08
2022-12-20T05:26:21.675Z,13.23
2022-12-20T05:27:23.827Z,17.33
2022-12-20T05:28:28.331Z,20.55
2022-12-20T05:29:32.870Z,15.35
2022-12-20T05:30:34.948Z,15.18
2022-12-20T05:31:39.506Z,14.15
2022-12-20T05:32:41.582Z,15.30
2022-12-20T05:33:46.195Z,13.02
2022-12-20T05:34:48.191Z,16.95
2022-12-20T05:35:52.883Z,13.88
2022-12-20T05:36:54.985Z,15.77
2022-12-20T05:37:59.543Z,14.07
2022-12-20T05:39:04.735Z,15.25
2022-12-20T05:40:11.007Z,14.55
2022-12-20T05:41:13.093Z,12.07
2022-12-20T05:42:18.132Z,12.73
2022-12-20T05:43:20.585Z,14.68
2022-12-20T05:44:25.174Z,13.30
2022-12-20T05:45:28.539Z,14.07
2022-12-20T05:46:33.414Z,16.58
2022-12-20T05:47:35.720Z,15.38
2022-12-20T05:48:40.485Z,14.05
2022-12-20T05:49:42.569Z,13.07
2022-12-20T05:50:48.032Z,12.48
2022-12-20T05:51:50.020Z,11.32
2022-12-20T05:52:54.663Z,17.45
2022-12-20T05:53:56.656Z,11.48
2022-12-20T05:55:03.779Z,53.22
2022-12-20T05:56:06.028Z,11.63
2022-12-20T05:57:10.584Z,12.38
2022-12-20T05:58:13.745Z,10.15
2022-12-20T05:59:18.850Z,11.05
2022-12-20T06:00:21.178Z,14.25
2022-12-20T06:01:25.802Z,13.88
2022-12-20T06:03:42.567Z,14.05
2022-12-20T06:04:44.623Z,11.80
2022-12-20T06:05:49.557Z,11.75
2022-12-20T06:06:52.463Z,11.48
2022-12-20T06:07:57.003Z,10.52
2022-12-20T06:09:01.558Z,9.55
2022-12-20T06:10:07.785Z,15.45
2022-12-20T06:11:12.410Z,9.18
2022-12-20T06:12:14.372Z,9.00
2022-12-20T06:13:19.308Z,18.33
2022-12-20T06:14:21.827Z,13.18
2022-12-20T06:15:26.504Z,20.58
2022-12-20T06:16:28.684Z,24.55
2022-12-20T06:17:33.541Z,17.30
2022-12-20T06:18:38.163Z,19.30
2022-12-20T06:19:41.664Z,20.95
2022-12-20T06:20:46.251Z,10.60
2022-12-20T06:21:48.280Z,11.10
2022-12-20T06:22:52.790Z,8.50
2022-12-20T06:23:57.925Z,17.80
2022-12-20T06:24:59.974Z,10.07
2022-12-20T06:26:09.482Z,8.63
2022-12-20T06:27:11.840Z,10.57
2022-12-20T06:28:22.200Z,11.63
2022-12-20T06:29:27.045Z,13.30
2022-12-20T06:30:34.074Z,15.45
2022-12-20T06:31:39.152Z,14.75
2022-12-20T06:32:43.765Z,11.57
2022-12-20T06:33:45.742Z,13.90
2022-12-20T06:34:50.270Z,10.38
2022-12-20T06:35:55.266Z,7.32
2022-12-20T06:36:57.303Z,14.57
2022-12-20T06:38:01.866Z,10.98
2022-12-20T06:39:09.514Z,8.93
2022-12-20T06:40:16.541Z,7.40
2022-12-20T06:41:21.246Z,10.13
2022-12-20T06:42:25.825Z,8.30
2022-12-20T06:43:27.825Z,11.57
2022-12-20T06:44:32.392Z,9.43
2022-12-20T06:45:42.146Z,13.57
2022-12-20T06:46:44.552Z,7.20
2022-12-20T06:47:49.176Z,9.07
2022-12-20T06:48:51.108Z,9.35
2022-12-20T06:49:55.693Z,10.73
2022-12-20T06:51:00.333Z,9.70
2022-12-20T06:52:02.319Z,10.13
2022-12-20T06:53:06.923Z,14.55
2022-12-20T06:54:08.943Z,5.32
2022-12-20T06:55:13.568Z,7.00
2022-12-20T06:56:15.859Z,5.20
2022-12-20T06:57:23.233Z,5.88
2022-12-20T06:58:25.183Z,7.25
2022-12-20T06:59:29.743Z,7.03
2022-12-20T07:00:31.818Z,9.05
2022-12-20T07:01:36.554Z,9.55
2022-12-20T07:02:39.211Z,9.52
2022-12-20T07:03:43.951Z,8.27
2022-12-20T07:04:46.023Z,7.00
2022-12-20T07:05:55.475Z,8.38
2022-12-20T07:06:57.446Z,5.80
2022-12-20T07:08:02.906Z,7.30
2022-12-20T07:09:05.034Z,8.60
2022-12-20T07:10:11.240Z,11.18
2022-12-20T07:11:15.840Z,7.72
2022-12-20T07:12:23.204Z,8.30
2022-12-20T07:13:26.172Z,10.55
2022-12-20T07:14:30.878Z,8.10
2022-12-20T07:15:32.868Z,9.43
2022-12-20T07:16:38.149Z,11.93
2022-12-20T07:17:40.180Z,9.60
2022-12-20T07:18:44.736Z,7.30
2022-12-20T07:19:50.988Z,6.28
2022-12-20T07:20:55.953Z,7.60
2022-12-20T07:22:00.513Z,5.32
2022-12-20T07:23:02.555Z,8.52
2022-12-20T07:24:07.831Z,8.60
2022-12-20T07:25:10.228Z,6.55
2022-12-20T07:26:14.817Z,8.02
2022-12-20T07:27:21.949Z,8.85
2022-12-20T07:28:26.015Z,5.70
2022-12-20T07:29:31.148Z,10.38
2022-12-20T07:30:33.159Z,9.00
2022-12-20T07:31:37.711Z,8.93
2022-12-20T07:32:39.670Z,11.48
2022-12-20T07:33:44.205Z,9.80
2022-12-20T07:34:48.791Z,6.65
2022-12-20T07:35:54.485Z,5.78
2022-12-20T07:36:59.525Z,8.63
2022-12-20T07:38:01.476Z,5.32
2022-12-20T07:39:06.252Z,7.00
2022-12-20T07:40:14.827Z,8.68
2022-12-20T07:41:20.854Z,10.52
2022-12-20T07:42:35.774Z,10.55
2022-12-20T07:43:41.323Z,12.63
2022-12-20T07:44:45.925Z,8.55
2022-12-20T07:45:48.154Z,9.15
2022-12-20T07:46:52.766Z,14.45
2022-12-20T07:47:57.255Z,8.52
2022-12-20T07:49:01.850Z,8.77
2022-12-20T07:50:04.499Z,10.60
2022-12-20T07:51:12.425Z,10.32
2022-12-20T07:52:18.657Z,8.95
2022-12-20T07:53:21.649Z,9.52
2022-12-20T07:54:29.562Z,9.55
2022-12-20T07:55:34.669Z,12.15
2022-12-20T07:56:41.899Z,12.45
2022-12-20T07:57:51.893Z,15.15
2022-12-20T07:58:59.478Z,9.00
2022-12-20T08:00:06.305Z,7.15
2022-12-20T08:01:10.480Z,7.38
2022-12-20T08:02:18.786Z,7.03
2022-12-20T08:03:26.483Z,10.13
2022-12-20T08:04:31.649Z,14.38
2022-12-20T08:05:37.601Z,12.75
2022-12-20T08:06:43.794Z,14.65
2022-12-20T08:07:47.151Z,9.32
2022-12-20T08:08:57.430Z,7.50
2022-12-20T08:10:02.565Z,16.65
2022-12-20T08:11:09.761Z,16.38
2022-12-20T08:12:18.279Z,12.88
2022-12-20T08:13:25.476Z,15.00
2022-12-20T08:14:27.637Z,14.10
2022-12-20T08:15:32.381Z,23.95
2022-12-20T08:16:37.109Z,18.95
2022-12-20T08:17:39.169Z,22.58
2022-12-20T08:18:43.758Z,19.27
2022-12-20T08:19:45.714Z,18.25
2022-12-20T08:20:50.252Z,11.02
2022-12-20T08:21:54.766Z,14.77
2022-12-20T08:22:56.735Z,14.95
2022-12-20T08:24:01.322Z,15.50
2022-12-20T08:25:04.853Z,13.68
2022-12-20T08:26:09.573Z,13.88
2022-12-20T08:27:14.198Z,11.57
2022-12-20T08:28:16.434Z,9.27
2022-12-20T08:29:23.898Z,11.63
2022-12-20T08:30:25.891Z,10.07
2022-12-20T08:31:30.572Z,17.55
2022-12-20T08:32:32.633Z,13.43
2022-12-20T08:33:38.111Z,16.67
2022-12-20T08:34:42.879Z,12.27
2022-12-20T08:35:47.433Z,9.00
2022-12-20T08:36:51.990Z,16.85
2022-12-20T08:37:53.956Z,8.25
2022-12-20T08:38:58.517Z,11.25
2022-12-20T08:40:03.272Z,13.63
2022-12-20T08:41:11.145Z,15.88
2022-12-20T08:42:13.186Z,14.52
2022-12-20T08:43:17.698Z,12.13
2022-12-20T08:44:25.560Z,12.35
2022-12-20T08:45:30.080Z,15.40
2022-12-20T08:46:34.860Z,14.10
2022-12-20T08:47:39.646Z,15.80
2022-12-20T08:48:44.287Z,18.92
2022-12-20T08:49:48.864Z,14.55
2022-12-20T08:50:55.125Z,14.82
2022-12-20T08:51:59.843Z,13.88
2022-12-20T08:53:04.432Z,19.83
2022-12-20T08:54:06.414Z,14.85
2022-12-20T08:55:13.105Z,16.85
2022-12-20T08:56:19.994Z,13.57
2022-12-20T08:57:21.989Z,14.18
2022-12-20T08:58:26.524Z,11.65
2022-12-20T08:59:31.091Z,11.23
2022-12-20T09:00:35.617Z,17.92
2022-12-20T09:01:40.277Z,15.68
2022-12-20T09:02:45.179Z,13.93
2022-12-20T09:03:50.565Z,11.38
2022-12-20T09:04:52.645Z,16.35
2022-12-20T09:05:57.181Z,10.48
2022-12-20T09:07:01.854Z,18.92
2022-12-20T09:08:03.962Z,12.25
2022-12-20T09:09:09.256Z,10.93
2022-12-20T09:10:13.189Z,8.38
2022-12-20T09:11:20.253Z,8.02
2022-12-20T09:12:24.801Z,8.68
2022-12-20T09:13:29.396Z,7.68
2022-12-20T09:14:36.593Z,12.43
2022-12-20T09:15:38.581Z,11.15
2022-12-20T09:16:43.162Z,11.75
2022-12-20T09:17:45.115Z,10.50
2022-12-20T09:18:52.189Z,8.60
2022-12-20T09:19:56.787Z,8.00
2022-12-20T09:21:01.137Z,6.20
2022-12-20T09:22:05.702Z,6.75
2022-12-20T09:23:10.251Z,7.70
2022-12-20T09:24:14.829Z,9.75
2022-12-20T09:25:19.573Z,6.07
2022-12-20T09:26:26.144Z,5.88
2022-12-20T09:27:28.362Z,12.13
2022-12-20T09:28:32.948Z,5.38
2022-12-20T09:29:40.286Z,9.60
2022-12-20T09:30:42.271Z,8.25
2022-12-20T09:31:46.859Z,6.93
2022-12-20T09:32:48.827Z,5.55
2022-12-20T09:33:56.462Z,6.30
2022-12-20T09:35:01.039Z,4.63
2022-12-20T09:36:07.322Z,4.55
2022-12-20T09:37:11.833Z,5.38
2022-12-20T09:38:14.113Z,5.63
2022-12-20T09:39:18.615Z,10.20
2022-12-20T09:40:24.524Z,4.70
2022-12-20T09:41:34.402Z,4.40
2022-12-20T09:42:36.873Z,6.63
2022-12-20T09:43:41.873Z,5.80
2022-12-20T09:44:49.404Z,6.78
2022-12-20T09:45:55.060Z,6.03
2022-12-20T09:47:09.827Z,5.40
2022-12-20T09:48:18.162Z,7.03
2022-12-20T09:49:23.621Z,6.82
2022-12-20T09:50:46.435Z,5.20
2022-12-20T09:52:12.871Z,8.05
2022-12-20T09:53:28.844Z,5.15
2022-12-20T09:54:43.703Z,7.90
2022-12-20T09:55:56.780Z,12.50
2022-12-20T09:57:05.281Z,10.77
2022-12-20T09:58:24.027Z,10.40
2022-12-20T09:59:29.798Z,13.27
2022-12-20T10:00:44.323Z,20.55
2022-12-20T10:01:53.113Z,7.05
2022-12-20T10:03:08.266Z,6.80
2022-12-20T10:04:19.797Z,14.88
2022-12-20T10:05:38.931Z,25.98
2022-12-20T10:06:55.616Z,32.03
2022-12-20T10:08:09.385Z,25.58
2022-12-20T10:09:36.549Z,7.82
2022-12-20T10:10:54.328Z,12.27
2022-12-20T10:12:07.866Z,5.38
2022-12-20T10:13:26.410Z,5.70
2022-12-20T10:14:57.718Z,7.25
2022-12-20T10:16:19.349Z,11.90
2022-12-20T10:17:35.688Z,7.38
2022-12-20T10:18:53.683Z,16.95
2022-12-20T10:20:08.590Z,9.82
2022-12-20T10:21:22.403Z,11.07
2022-12-20T10:22:33.308Z,8.75
2022-12-20T10:23:46.302Z,12.02
2022-12-20T10:25:02.596Z,6.63
2022-12-20T10:26:11.988Z,12.63
2022-12-20T10:27:19.200Z,5.88
2022-12-20T10:28:28.628Z,5.93
2022-12-20T10:29:30.724Z,8.05
2022-12-20T10:30:36.271Z,10.48
2022-12-20T10:31:43.680Z,11.68
2022-12-20T10:32:51.734Z,12.05
2022-12-20T10:33:56.290Z,7.97
2022-12-20T10:35:17.442Z,8.88
2022-12-20T10:36:28.598Z,9.00
2022-12-20T10:37:33.095Z,14.48
2022-12-20T10:38:47.138Z,12.50
2022-12-20T10:39:54.193Z,14.25
2022-12-20T10:41:21.385Z,9.35
2022-12-20T10:42:30.309Z,7.47
2022-12-20T10:43:45.422Z,13.85
2022-12-20T10:44:50.250Z,15.25
2022-12-20T10:46:00.398Z,6.93
2022-12-20T10:47:27.822Z,9.68
2022-12-20T10:48:35.048Z,14.32
2022-12-20T10:49:41.416Z,16.55
2022-12-20T10:50:43.378Z,23.77
2022-12-20T10:51:55.604Z,11.57
2022-12-20T10:53:21.395Z,28.73
2022-12-20T10:54:27.930Z,16.00
2022-12-20T10:55:38.276Z,7.85
2022-12-20T10:56:42.857Z,19.08
2022-12-20T10:57:45.705Z,15.18
2022-12-20T10:58:59.357Z,17.80
2022-12-20T11:00:09.104Z,10.05
2022-12-20T11:01:17.367Z,23.52
2022-12-20T11:02:39.934Z,8.80
2022-12-20T11:03:58.323Z,12.27
2022-12-20T11:05:06.309Z,9.77
2022-12-20T11:06:19.631Z,13.48
2022-12-20T11:07:27.808Z,15.27
2022-12-20T11:08:40.785Z,12.70
2022-12-20T11:09:57.342Z,15.73
2022-12-20T11:11:16.410Z,11.38
2022-12-20T11:12:18.608Z,14.35
2022-12-20T11:13:25.962Z,8.63
2022-12-20T11:14:38.298Z,8.32
2022-12-20T11:15:52.062Z,11.60
2022-12-20T11:17:00.097Z,10.82
2022-12-20T11:18:11.499Z,12.07
2022-12-20T11:19:40.629Z,8.25
2022-12-20T11:20:54.139Z,14.07
2022-12-20T11:22:09.715Z,12.50
2022-12-20T11:23:26.170Z,14.80
2022-12-20T11:24:38.574Z,8.23
2022-12-20T11:25:57.953Z,11.18
2022-12-20T11:27:18.281Z,6.78
2022-12-20T11:28:40.582Z,9.63
2022-12-20T11:30:08.379Z,13.88
2022-12-20T11:31:16.316Z,18.13
2022-12-20T11:32:37.042Z,9.85
2022-12-20T11:34:06.291Z,14.55
2022-12-20T11:35:17.264Z,8.52
2022-12-20T11:36:32.644Z,7.07
2022-12-20T11:37:46.496Z,9.15
2022-12-20T11:38:56.168Z,15.25
2022-12-20T11:40:12.733Z,15.25
2022-12-20T11:41:24.067Z,14.65
2022-12-20T11:42:40.337Z,10.13
2022-12-20T11:44:24.454Z,10.88
2022-12-20T11:45:33.232Z,9.25
2022-12-20T11:46:51.558Z,13.00
2022-12-20T11:48:28.687Z,9.10
2022-12-20T11:50:03.967Z,12.75
2022-12-20T11:51:26.710Z,10.35
2022-12-20T11:52:39.522Z,10.52
2022-12-20T11:53:50.995Z,14.90
2022-12-20T11:55:04.922Z,8.30
2022-12-20T11:56:17.847Z,9.05
2022-12-20T11:57:29.705Z,10.40
2022-12-20T11:58:47.799Z,13.02
2022-12-20T11:59:58.515Z,13.60
2022-12-20T12:01:07.251Z,14.43
2022-12-20T12:02:15.754Z,11.35
2022-12-20T12:03:26.413Z,7.07
2022-12-20T12:04:35.287Z,7.72
2022-12-20T12:05:46.545Z,8.82
2022-12-20T12:06:59.253Z,14.38
2022-12-20T12:08:13.536Z,10.57
2022-12-20T12:09:28.811Z,10.32
2022-12-20T12:10:34.299Z,12.90
2022-12-20T12:13:17.404Z,9.98
2022-12-20T12:14:30.420Z,9.80
2022-12-20T12:15:38.686Z,9.55
2022-12-20T12:16:50.088Z,12.82
2022-12-20T12:18:01.306Z,11.90
2022-12-20T12:19:03.982Z,11.77
2022-12-20T12:20:25.740Z,11.30
2022-12-20T12:21:40.084Z,12.10
2022-12-20T12:22:47.012Z,12.90
2022-12-20T12:24:01.804Z,10.35
2022-12-20T12:25:11.606Z,10.82
2022-12-20T12:26:23.131Z,10.20
2022-12-20T12:27:27.877Z,8.30
2022-12-20T12:28:32.435Z,8.93
2022-12-20T12:29:35.177Z,9.70
2022-12-20T12:30:45.676Z,10.55
2022-12-20T12:31:54.500Z,10.85
2022-12-20T12:33:03.561Z,12.77
2022-12-20T12:34:13.807Z,11.70
2022-12-20T12:35:48.882Z,10.68
2022-12-20T12:37:21.091Z,11.90
2022-12-20T12:38:58.418Z,7.50
2022-12-20T12:40:25.689Z,8.50
2022-12-20T12:41:51.212Z,6.82
2022-12-20T12:43:10.199Z,7.32
2022-12-20T12:44:36.100Z,7.70
2022-12-20T12:45:46.446Z,8.27
2022-12-20T12:46:58.833Z,7.88
2022-12-20T12:48:08.064Z,7.32
2022-12-20T12:49:18.791Z,6.15
2022-12-20T12:50:28.247Z,6.93
2022-12-20T12:51:36.708Z,5.90
2022-12-20T12:52:50.621Z,7.05
2022-12-20T12:53:57.827Z,6.65
2022-12-20T12:54:59.791Z,7.00
2022-12-20T12:56:45.599Z,6.53
2022-12-20T12:57:58.468Z,8.68
2022-12-20T12:59:24.229Z,6.35
2022-12-20T13:00:54.447Z,4.10
2022-12-20T13:02:30.729Z,5.10
2022-12-20T13:03:39.847Z,5.43
2022-12-20T13:05:02.035Z,11.02
2022-12-20T13:06:41.817Z,15.80
2022-12-20T13:07:49.037Z,16.70
2022-12-20T13:09:17.594Z,19.85
2022-12-20T13:11:01.165Z,13.30
2022-12-20T13:12:50.514Z,13.98
2022-12-20T13:14:14.448Z,15.20
2022-12-20T13:15:46.431Z,12.77
2022-12-20T13:18:25.705Z,5.90
2022-12-20T13:19:37.057Z,6.57
2022-12-20T13:20:39.525Z,11.63
2022-12-20T13:21:46.747Z,19.20
2022-12-20T13:23:17.475Z,15.30
2022-12-20T13:24:42.497Z,9.60
2022-12-20T13:25:49.070Z,13.07
2022-12-20T13:26:53.222Z,20.70
2022-12-20T13:28:33.433Z,6.97
2022-12-20T13:29:36.661Z,9.05
2022-12-20T13:30:41.411Z,9.27
2022-12-20T13:31:43.393Z,9.60
2022-12-20T13:33:16.238Z,9.32
2022-12-20T13:34:40.055Z,7.40
2022-12-20T13:35:57.951Z,16.20
2022-12-20T13:37:02.514Z,9.52
2022-12-20T13:38:29.240Z,10.20
2022-12-20T13:39:37.972Z,9.38
2022-12-20T13:40:42.921Z,13.73
2022-12-20T13:41:51.480Z,15.13
2022-12-20T13:42:59.666Z,10.02
2022-12-20T13:44:16.346Z,9.25
2022-12-20T13:45:20.879Z,10.45
2022-12-20T13:46:28.122Z,9.32
2022-12-20T13:47:40.204Z,10.43
2022-12-20T13:48:51.050Z,25.25
2022-12-20T13:49:55.608Z,18.60
2022-12-20T13:51:00.744Z,18.55
2022-12-20T13:52:36.723Z,13.80
2022-12-20T13:53:43.087Z,14.18
2022-12-20T13:54:52.388Z,13.43
2022-12-20T13:55:54.922Z,5.45
2022-12-20T13:56:59.565Z,8.00
2022-12-20T13:58:16.177Z,5.30
2022-12-20T13:59:24.877Z,7.88
2022-12-20T14:00:30.260Z,8.68
2022-12-20T14:01:33.585Z,5.63
2022-12-20T14:02:44.598Z,13.13
2022-12-20T14:03:50.668Z,11.32
2022-12-20T14:04:59.445Z,11.48
2022-12-20T14:06:05.759Z,14.50
2022-12-20T14:07:13.362Z,13.20
2022-12-20T14:08:21.520Z,10.23
2022-12-20T14:09:28.883Z,6.07
2022-12-20T14:10:37.597Z,6.90
2022-12-20T14:11:47.736Z,13.75
2022-12-20T14:12:53.240Z,9.48
2022-12-20T14:13:59.564Z,6.07
2022-12-20T14:15:01.486Z,6.88
2022-12-20T14:16:11.117Z,7.28
2022-12-20T14:17:17.931Z,11.02
2022-12-20T14:18:24.787Z,12.10
2022-12-20T14:19:26.694Z,11.77
2022-12-20T14:20:34.895Z,12.95
2022-12-20T14:21:42.849Z,15.27
2022-12-20T14:23:04.468Z,16.20
2022-12-20T14:24:17.339Z,8.23
2022-12-20T14:25:28.033Z,7.97
2022-12-20T14:26:41.423Z,9.27
2022-12-20T14:27:44.328Z,12.25
2022-12-20T14:28:51.209Z,20.55
2022-12-20T14:29:55.688Z,14.13
2022-12-20T14:31:02.110Z,14.57
2022-12-20T14:32:06.743Z,13.43
2022-12-20T14:33:23.422Z,12.77
2022-12-20T14:34:32.209Z,27.00
2022-12-20T14:35:39.845Z,10.73
2022-12-20T14:36:46.239Z,8.93
2022-12-20T14:37:54.525Z,13.50
2022-12-20T14:38:59.172Z,8.68
2022-12-20T14:40:04.273Z,7.43
2022-12-20T14:41:41.221Z,7.60
2022-12-20T14:42:43.179Z,11.07
2022-12-20T14:43:47.689Z,11.93
2022-12-20T14:44:49.863Z,13.95
2022-12-20T14:46:11.157Z,12.05
2022-12-20T14:47:19.121Z,67.13
2022-12-20T14:48:21.588Z,12.65